sensor_id;sensor_type;location;lat;lon;timestamp;pressure;altitude;pressure_sealevel;temperature;humidity
80654;BME280;70020;45.524;10.240;2023-05-28T00:02:00;100227.97;;;20.35;73.92
80654;BME280;70020;45.524;10.240;2023-05-28T00:04:27;100226.03;;;20.37;73.76
80654;BME280;70020;45.524;10.240;2023-05-28T00:06:53;100218.28;;;20.35;74.30
80654;BME280;70020;45.524;10.240;2023-05-28T00:09:20;100213.53;;;20.39;77.07
80654;BME280;70020;45.524;10.240;2023-05-28T00:11:46;100207.31;;;20.32;75.30
80654;BME280;70020;45.524;10.240;2023-05-28T00:14:12;100199.56;;;20.30;74.36
80654;BME280;70020;45.524;10.240;2023-05-28T00:16:38;100198.41;;;20.33;75.89
80654;BME280;70020;45.524;10.240;2023-05-28T00:19:06;100199.56;;;20.39;74.15
80654;BME280;70020;45.524;10.240;2023-05-28T00:21:32;100194.78;;;20.42;77.63
80654;BME280;70020;45.524;10.240;2023-05-28T00:23:59;100183.63;;;20.40;76.60
80654;BME280;70020;45.524;10.240;2023-05-28T00:26:25;100194.97;;;20.49;74.11
80654;BME280;70020;45.524;10.240;2023-05-28T00:28:53;100184.78;;;20.38;74.20
80654;BME280;70020;45.524;10.240;2023-05-28T00:31:28;100179.88;;;20.34;77.30
80654;BME280;70020;45.524;10.240;2023-05-28T00:33:54;100177.88;;;20.37;74.78
80654;BME280;70020;45.524;10.240;2023-05-28T00:36:19;100178.53;;;20.39;78.22
80654;BME280;70020;45.524;10.240;2023-05-28T00:38:45;100177.56;;;20.31;76.18
80654;BME280;70020;45.524;10.240;2023-05-28T00:41:21;100177.56;;;20.40;78.56
80654;BME280;70020;45.524;10.240;2023-05-28T00:43:51;100174.09;;;20.39;79.00
80654;BME280;70020;45.524;10.240;2023-05-28T00:46:21;100170.31;;;20.42;76.90
80654;BME280;70020;45.524;10.240;2023-05-28T00:48:47;100168.50;;;20.42;76.00
80654;BME280;70020;45.524;10.240;2023-05-28T00:51:14;100169.19;;;20.44;78.62
80654;BME280;70020;45.524;10.240;2023-05-28T00:53:41;100161.44;;;20.43;75.31
80654;BME280;70020;45.524;10.240;2023-05-28T00:56:09;100167.53;;;20.35;74.46
80654;BME280;70020;45.524;10.240;2023-05-28T00:58:39;100152.06;;;20.40;78.94
80654;BME280;70020;45.524;10.240;2023-05-28T01:01:09;100151.44;;;20.38;78.98
80654;BME280;70020;45.524;10.240;2023-05-28T01:03:38;100149.47;;;20.32;79.94
80654;BME280;70020;45.524;10.240;2023-05-28T01:06:09;100149.16;;;20.27;78.66
80654;BME280;70020;45.524;10.240;2023-05-28T01:08:40;100153.25;;;20.21;76.61
80654;BME280;70020;45.524;10.240;2023-05-28T01:11:10;100140.59;;;20.17;76.34
80654;BME280;70020;45.524;10.240;2023-05-28T01:13:37;100142.91;;;20.20;79.05
80654;BME280;70020;45.524;10.240;2023-05-28T01:16:04;100143.59;;;20.22;78.36
80654;BME280;70020;45.524;10.240;2023-05-28T01:18:32;100137.00;;;20.26;77.06
80654;BME280;70020;45.524;10.240;2023-05-28T01:20:59;100138.97;;;20.24;77.88
80654;BME280;70020;45.524;10.240;2023-05-28T01:23:28;100141.09;;;20.12;77.67
80654;BME280;70020;45.524;10.240;2023-05-28T01:25:54;100141.09;;;20.04;77.66
80654;BME280;70020;45.524;10.240;2023-05-28T01:28:22;100141.47;;;20.01;77.26
80654;BME280;70020;45.524;10.240;2023-05-28T01:30:48;100141.09;;;20.04;77.74
80654;BME280;70020;45.524;10.240;2023-05-28T01:33:14;100131.44;;;20.05;78.40
80654;BME280;70020;45.524;10.240;2023-05-28T01:35:41;100134.69;;;20.07;79.21
80654;BME280;70020;45.524;10.240;2023-05-28T01:38:09;100136.69;;;20.05;77.18
80654;BME280;70020;45.524;10.240;2023-05-28T01:40:36;100118.78;;;20.00;77.44
80654;BME280;70020;45.524;10.240;2023-05-28T01:43:03;100127.66;;;19.91;77.93
80654;BME280;70020;45.524;10.240;2023-05-28T01:45:30;100124.72;;;19.94;76.84
80654;BME280;70020;45.524;10.240;2023-05-28T01:47:56;100124.22;;;19.99;78.99
80654;BME280;70020;45.524;10.240;2023-05-28T01:50:22;100122.25;;;20.01;78.44
80654;BME280;70020;45.524;10.240;2023-05-28T01:52:49;100119.78;;;19.99;79.50
80654;BME280;70020;45.524;10.240;2023-05-28T01:55:14;100128.81;;;19.97;77.83
80654;BME280;70020;45.524;10.240;2023-05-28T01:57:40;100130.78;;;20.03;77.50
80654;BME280;70020;45.524;10.240;2023-05-28T02:00:06;100126.03;;;19.98;77.08
80654;BME280;70020;45.524;10.240;2023-05-28T02:02:32;100131.44;;;19.97;79.16
80654;BME280;70020;45.524;10.240;2023-05-28T02:05:01;100130.78;;;19.95;79.85
80654;BME280;70020;45.524;10.240;2023-05-28T02:07:27;100136.03;;;20.03;80.17
80654;BME280;70020;45.524;10.240;2023-05-28T02:09:53;100136.84;;;20.03;80.34
80654;BME280;70020;45.524;10.240;2023-05-28T02:12:19;100134.72;;;19.99;81.11
80654;BME280;70020;45.524;10.240;2023-05-28T02:14:48;100131.44;;;19.97;80.89
80654;BME280;70020;45.524;10.240;2023-05-28T02:17:13;100130.13;;;19.93;80.58
80654;BME280;70020;45.524;10.240;2023-05-28T02:19:39;100137.34;;;19.91;81.53
80654;BME280;70020;45.524;10.240;2023-05-28T02:22:05;100135.72;;;19.82;80.28
80654;BME280;70020;45.524;10.240;2023-05-28T02:24:38;100133.25;;;19.80;78.74
80654;BME280;70020;45.524;10.240;2023-05-28T02:27:05;100133.09;;;19.82;79.05
80654;BME280;70020;45.524;10.240;2023-05-28T02:29:31;100128.00;;;19.88;79.99
80654;BME280;70020;45.524;10.240;2023-05-28T02:31:58;100128.66;;;19.98;80.05
80654;BME280;70020;45.524;10.240;2023-05-28T02:34:24;100120.78;;;19.98;80.63
80654;BME280;70020;45.524;10.240;2023-05-28T02:36:50;100122.25;;;20.01;80.18
80654;BME280;70020;45.524;10.240;2023-05-28T02:39:18;100123.22;;;20.00;81.09
80654;BME280;70020;45.524;10.240;2023-05-28T02:41:44;100124.53;;;19.96;80.81
80654;BME280;70020;45.524;10.240;2023-05-28T02:44:10;100125.69;;;19.93;80.95
80654;BME280;70020;45.524;10.240;2023-05-28T02:46:36;100123.91;;;19.78;77.92
80654;BME280;70020;45.524;10.240;2023-05-28T02:49:02;100128.16;;;19.87;80.33
80654;BME280;70020;45.524;10.240;2023-05-28T02:51:28;100137.34;;;19.91;80.00
80654;BME280;70020;45.524;10.240;2023-05-28T02:53:54;100127.50;;;19.93;78.78
80654;BME280;70020;45.524;10.240;2023-05-28T02:56:20;100134.88;;;19.97;78.53
80654;BME280;70020;45.524;10.240;2023-05-28T02:58:46;100139.97;;;19.99;80.23
80654;BME280;70020;45.524;10.240;2023-05-28T03:01:13;100137.34;;;19.91;81.31
80654;BME280;70020;45.524;10.240;2023-05-28T03:03:38;100142.94;;;19.80;81.92
80654;BME280;70020;45.524;10.240;2023-05-28T03:06:04;100144.91;;;19.78;81.24
80654;BME280;70020;45.524;10.240;2023-05-28T03:08:30;100145.56;;;19.80;81.31
80654;BME280;70020;45.524;10.240;2023-05-28T03:10:55;100153.44;;;19.72;81.44
80654;BME280;70020;45.524;10.240;2023-05-28T03:13:22;100150.81;;;19.72;81.31
80654;BME280;70020;45.524;10.240;2023-05-28T03:15:47;100158.53;;;19.65;80.19
80654;BME280;70020;45.524;10.240;2023-05-28T03:18:13;100152.94;;;19.68;80.41
80654;BME280;70020;45.524;10.240;2023-05-28T03:20:39;100157.69;;;19.64;80.87
80654;BME280;70020;45.524;10.240;2023-05-28T03:23:05;100157.69;;;19.64;81.48
80654;BME280;70020;45.524;10.240;2023-05-28T03:25:30;100154.94;;;19.66;82.38
80654;BME280;70020;45.524;10.240;2023-05-28T03:27:57;100152.31;;;19.66;83.22
80654;BME280;70020;45.524;10.240;2023-05-28T03:30:23;100150.47;;;19.66;83.55
80654;BME280;70020;45.524;10.240;2023-05-28T03:32:49;100156.41;;;19.68;83.35
80654;BME280;70020;45.524;10.240;2023-05-28T03:35:15;100146.53;;;19.62;83.82
80654;BME280;70020;45.524;10.240;2023-05-28T03:37:41;100146.53;;;19.62;83.37
80654;BME280;70020;45.524;10.240;2023-05-28T03:40:09;100154.59;;;19.61;83.51
80654;BME280;70020;45.524;10.240;2023-05-28T03:42:38;100158.19;;;19.60;83.18
80654;BME280;70020;45.524;10.240;2023-05-28T03:45:04;100156.03;;;19.55;83.21
80654;BME280;70020;45.524;10.240;2023-05-28T03:47:30;100153.41;;;19.47;82.33
80654;BME280;70020;45.524;10.240;2023-05-28T03:49:57;100154.56;;;19.53;81.44
80654;BME280;70020;45.524;10.240;2023-05-28T03:52:24;100153.91;;;19.51;80.48
80654;BME280;70020;45.524;10.240;2023-05-28T03:54:49;100154.72;;;19.59;82.19
80654;BME280;70020;45.524;10.240;2023-05-28T03:57:15;100149.00;;;19.56;78.96
80654;BME280;70020;45.524;10.240;2023-05-28T03:59:41;100154.94;;;19.66;79.13
80654;BME280;70020;45.524;10.240;2023-05-28T04:02:07;100156.72;;;19.65;80.53
80654;BME280;70020;45.524;10.240;2023-05-28T04:04:33;100161.63;;;19.60;77.94
80654;BME280;70020;45.524;10.240;2023-05-28T04:06:59;100159.31;;;19.57;76.60
80654;BME280;70020;45.524;10.240;2023-05-28T04:09:25;100166.56;;;19.55;78.26
80654;BME280;70020;45.524;10.240;2023-05-28T04:11:52;100168.84;;;19.66;78.47
80654;BME280;70020;45.524;10.240;2023-05-28T04:14:18;100166.72;;;19.70;78.47
80654;BME280;70020;45.524;10.240;2023-05-28T04:16:44;100165.72;;;19.71;78.08
80654;BME280;70020;45.524;10.240;2023-05-28T04:19:10;100171.19;;;19.78;76.20
80654;BME280;70020;45.524;10.240;2023-05-28T04:21:36;100164.09;;;19.78;79.21
80654;BME280;70020;45.524;10.240;2023-05-28T04:24:02;100175.44;;;19.79;78.70
80654;BME280;70020;45.524;10.240;2023-05-28T04:26:28;100171.81;;;19.80;77.21
80654;BME280;70020;45.524;10.240;2023-05-28T04:28:53;100180.03;;;19.77;76.43
80654;BME280;70020;45.524;10.240;2023-05-28T04:31:19;100180.03;;;19.85;78.11
80654;BME280;70020;45.524;10.240;2023-05-28T04:33:45;100177.41;;;19.85;78.51
80654;BME280;70020;45.524;10.240;2023-05-28T04:36:12;100175.41;;;19.95;73.42
80654;BME280;70020;45.524;10.240;2023-05-28T04:38:38;100178.56;;;19.98;72.34
80654;BME280;70020;45.524;10.240;2023-05-28T04:41:05;100176.41;;;20.02;73.39
80654;BME280;70020;45.524;10.240;2023-05-28T04:43:30;100181.00;;;20.08;74.39
80654;BME280;70020;45.524;10.240;2023-05-28T04:45:59;100182.13;;;20.21;73.73
80654;BME280;70020;45.524;10.240;2023-05-28T04:48:26;100179.03;;;20.26;73.95
80654;BME280;70020;45.524;10.240;2023-05-28T04:50:52;100178.72;;;20.29;71.74
80654;BME280;70020;45.524;10.240;2023-05-28T04:53:19;100174.94;;;20.40;72.16
80654;BME280;70020;45.524;10.240;2023-05-28T04:55:44;100180.16;;;20.48;73.15
80654;BME280;70020;45.524;10.240;2023-05-28T04:58:10;100182.59;;;20.57;76.22
80654;BME280;70020;45.524;10.240;2023-05-28T05:00:37;100177.34;;;20.65;76.75
80654;BME280;70020;45.524;10.240;2023-05-28T05:03:03;100174.84;;;20.64;74.76
80654;BME280;70020;45.524;10.240;2023-05-28T05:05:33;100174.97;;;20.78;75.18
80654;BME280;70020;45.524;10.240;2023-05-28T05:07:59;100170.22;;;20.82;73.25
80654;BME280;70020;45.524;10.240;2023-05-28T05:10:25;100170.16;;;20.90;74.07
80654;BME280;70020;45.524;10.240;2023-05-28T05:12:51;100165.72;;;20.90;75.71
80654;BME280;70020;45.524;10.240;2023-05-28T05:15:19;100162.91;;;20.92;77.37
80654;BME280;70020;45.524;10.240;2023-05-28T05:17:44;100168.03;;;20.93;76.28
80654;BME280;70020;45.524;10.240;2023-05-28T05:20:11;100168.31;;;20.98;73.24
80654;BME280;70020;45.524;10.240;2023-05-28T05:22:37;100166.69;;;20.97;70.79
80654;BME280;70020;45.524;10.240;2023-05-28T05:25:03;100170.44;;;21.03;71.97
80654;BME280;70020;45.524;10.240;2023-05-28T05:27:29;100158.91;;;21.04;71.03
80654;BME280;70020;45.524;10.240;2023-05-28T05:29:54;100166.50;;;21.07;70.59
80654;BME280;70020;45.524;10.240;2023-05-28T05:32:20;100163.03;;;21.07;70.92
80654;BME280;70020;45.524;10.240;2023-05-28T05:34:47;100164.06;;;21.06;70.80
80654;BME280;70020;45.524;10.240;2023-05-28T05:37:13;100159.25;;;21.09;69.67
80654;BME280;70020;45.524;10.240;2023-05-28T05:39:39;100157.25;;;21.11;68.93
80654;BME280;70020;45.524;10.240;2023-05-28T05:42:05;100157.41;;;21.18;70.15
80654;BME280;70020;45.524;10.240;2023-05-28T05:44:31;100161.97;;;21.24;68.95
80654;BME280;70020;45.524;10.240;2023-05-28T05:46:57;100161.25;;;21.30;68.12
80654;BME280;70020;45.524;10.240;2023-05-28T05:49:23;100156.78;;;21.38;64.75
80654;BME280;70020;45.524;10.240;2023-05-28T05:51:49;100154.97;;;21.39;66.55
80654;BME280;70020;45.524;10.240;2023-05-28T05:54:15;100162.16;;;21.45;68.70
80654;BME280;70020;45.524;10.240;2023-05-28T05:56:41;100164.75;;;21.53;67.23
80654;BME280;70020;45.524;10.240;2023-05-28T05:59:07;100165.16;;;21.64;68.86
80654;BME280;70020;45.524;10.240;2023-05-28T06:01:34;100163.63;;;21.70;68.12
80654;BME280;70020;45.524;10.240;2023-05-28T06:04:00;100162.28;;;21.74;65.06
80654;BME280;70020;45.524;10.240;2023-05-28T06:06:26;100163.56;;;21.78;68.16
80654;BME280;70020;45.524;10.240;2023-05-28T06:08:52;100157.91;;;21.89;67.67
80654;BME280;70020;45.524;10.240;2023-05-28T06:11:18;100158.66;;;21.98;66.72
80654;BME280;70020;45.524;10.240;2023-05-28T06:13:44;100147.75;;;22.01;64.30
80654;BME280;70020;45.524;10.240;2023-05-28T06:16:09;100152.03;;;22.02;64.07
80654;BME280;70020;45.524;10.240;2023-05-28T06:18:36;100150.56;;;21.99;63.88
80654;BME280;70020;45.524;10.240;2023-05-28T06:21:02;100152.97;;;22.09;64.04
80654;BME280;70020;45.524;10.240;2023-05-28T06:23:28;100143.16;;;22.17;63.15
80654;BME280;70020;45.524;10.240;2023-05-28T06:25:54;100145.91;;;22.24;63.15
80654;BME280;70020;45.524;10.240;2023-05-28T06:28:20;100149.63;;;22.29;64.99
80654;BME280;70020;45.524;10.240;2023-05-28T06:30:45;100147.06;;;22.36;63.16
80654;BME280;70020;45.524;10.240;2023-05-28T06:33:11;100149.97;;;22.41;60.78
80654;BME280;70020;45.524;10.240;2023-05-28T06:35:36;100152.63;;;22.41;60.11
80654;BME280;70020;45.524;10.240;2023-05-28T06:38:03;100154.34;;;22.49;61.41
80654;BME280;70020;45.524;10.240;2023-05-28T06:40:29;100157.09;;;22.55;61.93
80654;BME280;70020;45.524;10.240;2023-05-28T06:42:54;100154.91;;;22.59;57.93
80654;BME280;70020;45.524;10.240;2023-05-28T06:45:20;100159.47;;;22.65;58.92
80654;BME280;70020;45.524;10.240;2023-05-28T06:47:46;100155.50;;;22.69;61.42
80654;BME280;70020;45.524;10.240;2023-05-28T06:50:13;100148.66;;;22.74;60.74
80654;BME280;70020;45.524;10.240;2023-05-28T06:52:39;100151.75;;;22.78;61.62
80654;BME280;70020;45.524;10.240;2023-05-28T06:55:06;100151.00;;;22.84;57.82
80654;BME280;70020;45.524;10.240;2023-05-28T06:57:34;100153.91;;;22.89;60.48
80654;BME280;70020;45.524;10.240;2023-05-28T07:00:05;100154.53;;;22.91;57.78
80654;BME280;70020;45.524;10.240;2023-05-28T07:02:38;100153.97;;;22.95;57.55
80654;BME280;70020;45.524;10.240;2023-05-28T07:05:04;100147.97;;;23.01;56.81
80654;BME280;70020;45.524;10.240;2023-05-28T07:07:30;100146.59;;;23.06;56.26
80654;BME280;70020;45.524;10.240;2023-05-28T07:09:56;100143.75;;;23.07;55.49
80654;BME280;70020;45.524;10.240;2023-05-28T07:12:22;100147.50;;;23.13;55.12
80654;BME280;70020;45.524;10.240;2023-05-28T07:14:48;100141.03;;;23.15;54.84
80654;BME280;70020;45.524;10.240;2023-05-28T07:17:14;100144.75;;;23.21;52.38
80654;BME280;70020;45.524;10.240;2023-05-28T07:19:39;100151.50;;;23.23;51.87
80654;BME280;70020;45.524;10.240;2023-05-28T07:22:06;100149.53;;;23.32;53.51
80654;BME280;70020;45.524;10.240;2023-05-28T07:24:31;100147.38;;;23.35;50.78
80654;BME280;70020;45.524;10.240;2023-05-28T07:26:57;100151.53;;;23.44;52.92
80654;BME280;70020;45.524;10.240;2023-05-28T07:29:23;100148.69;;;23.46;52.65
80654;BME280;70020;45.524;10.240;2023-05-28T07:31:49;100152.78;;;23.48;52.50
80654;BME280;70020;45.524;10.240;2023-05-28T07:34:14;100150.59;;;23.52;52.41
80654;BME280;70020;45.524;10.240;2023-05-28T07:36:41;100149.47;;;23.61;52.93
80654;BME280;70020;45.524;10.240;2023-05-28T07:39:07;100150.91;;;23.63;53.94
80654;BME280;70020;45.524;10.240;2023-05-28T07:41:35;100152.72;;;23.63;55.65
80654;BME280;70020;45.524;10.240;2023-05-28T07:44:01;100146.88;;;23.67;52.90
80654;BME280;70020;45.524;10.240;2023-05-28T07:46:27;100151.34;;;23.67;53.13
80654;BME280;70020;45.524;10.240;2023-05-28T07:48:52;100154.59;;;23.69;56.04
80654;BME280;70020;45.524;10.240;2023-05-28T07:51:18;100152.78;;;23.69;52.46
80654;BME280;70020;45.524;10.240;2023-05-28T07:53:44;100152.66;;;23.78;52.75
80654;BME280;70020;45.524;10.240;2023-05-28T07:56:10;100152.50;;;23.86;52.09
80654;BME280;70020;45.524;10.240;2023-05-28T07:58:35;100144.16;;;23.82;50.12
80654;BME280;70020;45.524;10.240;2023-05-28T08:01:01;100151.88;;;23.84;51.09
80654;BME280;70020;45.524;10.240;2023-05-28T08:03:27;100151.94;;;23.90;50.51
80654;BME280;70020;45.524;10.240;2023-05-28T08:08:28;100143.50;;;24.01;49.26
80654;BME280;70020;45.524;10.240;2023-05-28T08:10:54;100143.94;;;24.05;52.31
80654;BME280;70020;45.524;10.240;2023-05-28T08:13:20;100146.28;;;24.14;53.37
80654;BME280;70020;45.524;10.240;2023-05-28T08:15:46;100144.72;;;24.26;51.92
80654;BME280;70020;45.524;10.240;2023-05-28T08:18:11;100142.94;;;24.33;52.60
80654;BME280;70020;45.524;10.240;2023-05-28T08:20:37;100136.69;;;24.41;50.12
80654;BME280;70020;45.524;10.240;2023-05-28T08:23:04;100145.28;;;24.50;51.05
80654;BME280;70020;45.524;10.240;2023-05-28T08:25:32;100132.50;;;24.60;51.26
80654;BME280;70020;45.524;10.240;2023-05-28T08:27:58;100131.31;;;24.62;51.39
80654;BME280;70020;45.524;10.240;2023-05-28T08:30:23;100125.22;;;24.68;51.28
80654;BME280;70020;45.524;10.240;2023-05-28T08:32:49;100133.16;;;24.68;51.02
80654;BME280;70020;45.524;10.240;2023-05-28T08:35:15;100132.50;;;24.60;50.27
80654;BME280;70020;45.524;10.240;2023-05-28T08:37:40;100130.84;;;24.52;51.80
80654;BME280;70020;45.524;10.240;2023-05-28T08:40:07;100128.44;;;24.57;52.96
80654;BME280;70020;45.524;10.240;2023-05-28T08:42:34;100125.41;;;24.60;52.49
80654;BME280;70020;45.524;10.240;2023-05-28T08:45:00;100128.03;;;24.60;51.38
80654;BME280;70020;45.524;10.240;2023-05-28T08:47:27;100128.63;;;24.56;50.65
80654;BME280;70020;45.524;10.240;2023-05-28T08:49:54;100127.22;;;24.60;48.85
80654;BME280;70020;45.524;10.240;2023-05-28T08:52:20;100126.84;;;24.63;50.03
80654;BME280;70020;45.524;10.240;2023-05-28T08:54:46;100122.56;;;24.68;51.40
80654;BME280;70020;45.524;10.240;2023-05-28T08:57:13;100133.97;;;24.69;52.25
80654;BME280;70020;45.524;10.240;2023-05-28T08:59:39;100109.75;;;24.65;50.94
80654;BME280;70020;45.524;10.240;2023-05-28T09:02:06;100120.34;;;24.65;51.73
80654;BME280;70020;45.524;10.240;2023-05-28T09:04:32;100121.13;;;24.66;50.36
80654;BME280;70020;45.524;10.240;2023-05-28T09:06:58;100121.19;;;24.72;50.62
80654;BME280;70020;45.524;10.240;2023-05-28T09:09:24;100115.72;;;24.80;51.45
80654;BME280;70020;45.524;10.240;2023-05-28T09:11:49;100117.78;;;24.85;49.59
80654;BME280;70020;45.524;10.240;2023-05-28T09:14:17;100116.78;;;24.86;48.22
80654;BME280;70020;45.524;10.240;2023-05-28T09:16:44;100113.31;;;24.92;51.29
80654;BME280;70020;45.524;10.240;2023-05-28T09:19:14;100113.38;;;24.98;49.97
80654;BME280;70020;45.524;10.240;2023-05-28T09:21:55;100109.53;;;25.21;49.58
80654;BME280;70020;45.524;10.240;2023-05-28T09:24:23;100102.41;;;25.21;48.38
80654;BME280;70020;45.524;10.240;2023-05-28T09:26:54;100101.81;;;25.26;50.54
80654;BME280;70020;45.524;10.240;2023-05-28T09:29:20;100099.19;;;25.39;51.64
80654;BME280;70020;45.524;10.240;2023-05-28T09:31:54;100100.59;;;25.41;51.80
80654;BME280;70020;45.524;10.240;2023-05-28T09:34:20;100091.44;;;25.31;47.50
80654;BME280;70020;45.524;10.240;2023-05-28T09:36:46;100093.94;;;25.45;49.00
80654;BME280;70020;45.524;10.240;2023-05-28T09:39:12;100082.50;;;25.51;50.38
80654;BME280;70020;45.524;10.240;2023-05-28T09:41:38;100083.13;;;25.60;50.36
80654;BME280;70020;45.524;10.240;2023-05-28T09:44:09;100079.03;;;25.71;50.75
80654;BME280;70020;45.524;10.240;2023-05-28T09:46:36;100084.34;;;25.77;52.15
80654;BME280;70020;45.524;10.240;2023-05-28T09:49:03;100076.59;;;25.82;49.16
80654;BME280;70020;45.524;10.240;2023-05-28T09:51:30;100076.56;;;25.89;47.85
80654;BME280;70020;45.524;10.240;2023-05-28T09:54:04;100074.34;;;25.92;47.66
80654;BME280;70020;45.524;10.240;2023-05-28T09:56:32;100072.31;;;25.88;47.48
80654;BME280;70020;45.524;10.240;2023-05-28T09:59:00;100070.88;;;25.92;47.89
80654;BME280;70020;45.524;10.240;2023-05-28T10:02:07;100074.94;;;26.01;48.60
80654;BME280;70020;45.524;10.240;2023-05-28T10:04:42;100066.59;;;25.97;49.55
80654;BME280;70020;45.524;10.240;2023-05-28T10:07:10;100066.59;;;25.97;48.18
80654;BME280;70020;45.524;10.240;2023-05-28T10:09:39;100065.97;;;26.02;48.80
80654;BME280;70020;45.524;10.240;2023-05-28T10:12:12;100065.97;;;25.95;46.26
80654;BME280;70020;45.524;10.240;2023-05-28T10:14:42;100069.44;;;26.02;47.30
80654;BME280;70020;45.524;10.240;2023-05-28T10:17:08;100068.41;;;26.03;46.42
80654;BME280;70020;45.524;10.240;2023-05-28T10:19:36;100069.41;;;25.96;45.16
80654;BME280;70020;45.524;10.240;2023-05-28T10:22:02;100065.78;;;25.84;45.19
80654;BME280;70020;45.524;10.240;2023-05-28T10:24:29;100063.13;;;25.90;46.58
80654;BME280;70020;45.524;10.240;2023-05-28T10:26:56;100058.47;;;25.79;46.50
80654;BME280;70020;45.524;10.240;2023-05-28T10:29:22;100066.00;;;25.62;46.12
80654;BME280;70020;45.524;10.240;2023-05-28T10:32:00;100064.59;;;25.66;45.63
80654;BME280;70020;45.524;10.240;2023-05-28T10:34:30;100069.25;;;25.71;45.85
80654;BME280;70020;45.524;10.240;2023-05-28T10:37:00;100065.16;;;25.82;45.98
80654;BME280;70020;45.524;10.240;2023-05-28T10:39:26;100069.22;;;26.04;43.50
80654;BME280;70020;45.524;10.240;2023-05-28T10:41:56;100059.00;;;26.20;42.74
80654;BME280;70020;45.524;10.240;2023-05-28T10:44:22;100060.22;;;26.24;45.96
80654;BME280;70020;45.524;10.240;2023-05-28T10:46:55;100057.38;;;26.26;43.40
80654;BME280;70020;45.524;10.240;2023-05-28T10:49:20;100052.22;;;26.38;44.41
80654;BME280;70020;45.524;10.240;2023-05-28T10:51:51;100043.88;;;26.27;44.39
80654;BME280;70020;45.524;10.240;2023-05-28T10:59:52;100036.75;;;26.72;47.31
80654;BME280;70020;45.524;10.240;2023-05-28T11:04:44;100026.66;;;26.94;45.66
80654;BME280;70020;45.524;10.240;2023-05-28T11:07:12;100028.56;;;26.80;46.23
80654;BME280;70020;45.524;10.240;2023-05-28T11:09:38;100023.13;;;26.62;44.11
80654;BME280;70020;45.524;10.240;2023-05-28T11:12:04;100020.63;;;26.67;45.17
80654;BME280;70020;45.524;10.240;2023-05-28T11:14:38;100020.88;;;26.66;47.19
80654;BME280;70020;45.524;10.240;2023-05-28T11:17:11;100018.59;;;26.76;46.64
80654;BME280;70020;45.524;10.240;2023-05-28T11:22:10;100004.84;;;26.85;45.80
80654;BME280;70020;45.524;10.240;2023-05-28T11:24:59;99998.03;;;26.96;46.63
80654;BME280;70020;45.524;10.240;2023-05-28T11:27:30;99998.38;;;27.06;47.03
80654;BME280;70020;45.524;10.240;2023-05-28T11:29:59;100003.22;;;27.16;48.71
80654;BME280;70020;45.524;10.240;2023-05-28T11:32:27;99999.31;;;27.18;45.55
80654;BME280;70020;45.524;10.240;2023-05-28T11:34:54;99999.25;;;27.25;46.43
80654;BME280;70020;45.524;10.240;2023-05-28T11:37:40;99995.94;;;27.29;42.75
80654;BME280;70020;45.524;10.240;2023-05-28T11:40:07;99992.84;;;27.32;43.63
80654;BME280;70020;45.524;10.240;2023-05-28T11:42:39;99988.22;;;27.21;42.87
80654;BME280;70020;45.524;10.240;2023-05-28T11:45:05;99988.31;;;27.39;42.12
80654;BME280;70020;45.524;10.240;2023-05-28T11:47:32;99978.81;;;27.50;44.67
80654;BME280;70020;45.524;10.240;2023-05-28T11:49:58;99991.34;;;27.67;44.51
80654;BME280;70020;45.524;10.240;2023-05-28T11:52:25;99984.03;;;27.81;44.29
80654;BME280;70020;45.524;10.240;2023-05-28T11:54:56;99984.19;;;27.86;46.76
80654;BME280;70020;45.524;10.240;2023-05-28T11:57:26;99981.00;;;27.96;45.50
80654;BME280;70020;45.524;10.240;2023-05-28T12:00:04;99974.88;;;27.95;44.71
80654;BME280;70020;45.524;10.240;2023-05-28T12:02:51;99981.19;;;28.01;43.34
80654;BME280;70020;45.524;10.240;2023-05-28T12:05:24;99978.03;;;27.86;41.81
80654;BME280;70020;45.524;10.240;2023-05-28T12:07:52;99978.16;;;27.54;41.75
80654;BME280;70020;45.524;10.240;2023-05-28T12:10:22;99970.31;;;27.41;43.73
80654;BME280;70020;45.524;10.240;2023-05-28T12:12:50;99967.06;;;27.39;42.64
80654;BME280;70020;45.524;10.240;2023-05-28T12:15:16;99957.31;;;27.27;42.12
80654;BME280;70020;45.524;10.240;2023-05-28T12:17:44;99961.69;;;27.46;42.60
80654;BME280;70020;45.524;10.240;2023-05-28T12:22:41;99961.50;;;27.65;42.21
80654;BME280;70020;45.524;10.240;2023-05-28T12:25:08;99954.34;;;27.66;43.47
80654;BME280;70020;45.524;10.240;2023-05-28T12:27:35;99948.78;;;27.67;43.67
80654;BME280;70020;45.524;10.240;2023-05-28T12:30:02;99941.03;;;27.84;43.76
80654;BME280;70020;45.524;10.240;2023-05-28T12:32:28;99938.81;;;27.99;41.24
80654;BME280;70020;45.524;10.240;2023-05-28T12:34:58;99928.03;;;28.12;40.27
80654;BME280;70020;45.524;10.240;2023-05-28T12:37:24;99926.34;;;28.18;42.05
80654;BME280;70020;45.524;10.240;2023-05-28T12:39:53;99927.84;;;28.25;41.68
80654;BME280;70020;45.524;10.240;2023-05-28T12:42:19;99924.44;;;28.37;43.12
80654;BME280;70020;45.524;10.240;2023-05-28T12:44:45;99922.63;;;28.49;41.97
80654;BME280;70020;45.524;10.240;2023-05-28T12:47:12;99917.53;;;28.47;42.20
80654;BME280;70020;45.524;10.240;2023-05-28T12:49:38;99911.69;;;28.68;42.38
80654;BME280;70020;45.524;10.240;2023-05-28T12:52:04;99908.72;;;28.76;40.71
80654;BME280;70020;45.524;10.240;2023-05-28T12:54:32;99908.03;;;28.81;43.54
80654;BME280;70020;45.524;10.240;2023-05-28T12:56:58;99905.94;;;28.71;39.71